Terminal Aerodrome Forecast
Issued by NWS

Home | Current Version | Previous Version | Text Only | Print | Product List | Glossary On
Versions: 1 2 3 4 5 6 7 8 9 10 11 12 13 14 15 16 17 18 19 20 21 22 23 24
000
FTUS45 KREV 180534
TAFCXP
TAF
KCXP 180534Z 1806/1906 27008KT P6SM SCT200
     FM180800 23024G35KT P6SM SCT090 WS015/26050KT
     FM190000 29014G24KT 2SM -SHSN BKN020 OVC030
     FM190300 32012G20KT P6SM VCSH BKN030=

USA.gov is the U.S. government's official web portal to all federal, state and local government web resources and services.